Time;durP1;ratioP1;P1;durP2;ratioP2;P2;SDS_P1;SDS_P2;PMS_P1;PMS_P2;Temp;Humidity;BMP_temperature;BMP_pressure;BME280_temperature;BME280_humidity;BME280_pressure;Samples;Min_cycle;Max_cycle;Signal;HPM_P1;HPM_P2
2023/03/01 00:00:18;;;;;;;21.48;14.15;;;2.30;99.90;;;1.23;100.00;102262.44;4170965;28;20028;-76
2023/03/01 00:02:20;;;;;;;21.15;13.80;;;2.30;99.90;;;1.16;100.00;102257.53;4169417;28;20053;-76
2023/03/01 00:04:21;;;;;;;20.38;13.63;;;2.30;99.90;;;1.09;100.00;102256.94;4170683;28;20030;-76
2023/03/01 00:06:22;;;;;;;21.92;14.00;;;2.20;99.90;;;1.02;100.00;102253.72;4169427;28;20509;-76
2023/03/01 00:08:23;;;;;;;21.92;14.27;;;2.20;99.90;;;0.92;100.00;102254.97;4187101;28;20520;-76
2023/03/01 00:10:24;;;;;;;20.23;14.23;;;2.10;99.90;;;0.81;100.00;102244.13;4169222;28;20053;-76
2023/03/01 00:12:25;;;;;;;19.48;13.65;;;2.00;99.90;;;0.71;100.00;102228.94;4169285;28;20559;-76
2023/03/01 00:14:25;;;;;;;24.05;14.45;;;1.80;99.90;;;0.60;100.00;102239.72;4169362;28;20025;-75
2023/03/01 00:16:42;;;;;;;21.50;14.55;;;1.70;99.90;;;0.46;100.00;102242.81;4170313;28;20056;-76
2023/03/01 00:18:43;;;;;;;20.52;15.40;;;1.60;99.90;;;0.32;100.00;102236.44;4175520;28;20021;-75
2023/03/01 00:20:55;;;;;;;22.75;14.75;;;1.50;99.90;;;0.34;100.00;102247.59;4185835;28;20095;-75
2023/03/01 00:22:55;;;;;;;23.23;15.18;;;1.40;99.90;;;0.30;100.00;102259.00;4185462;28;20043;-75
2023/03/01 00:24:56;;;;;;;20.65;15.15;;;1.40;99.90;;;0.20;100.00;102261.06;4185605;28;20036;-75
2023/03/01 00:26:57;;;;;;;24.88;15.52;;;1.30;99.90;;;0.18;100.00;102267.22;4181339;28;20103;-75
2023/03/01 00:28:59;;;;;;;21.50;14.90;;;1.30;99.90;;;0.11;100.00;102258.78;4170244;28;20416;-75
2023/03/01 00:31:10;;;;;;;22.98;15.48;;;1.20;99.90;;;0.11;100.00;102256.19;4169202;28;20032;-75
2023/03/01 00:33:11;;;;;;;20.83;14.35;;;1.20;99.90;;;0.05;100.00;102251.22;4169141;28;20521;-75
2023/03/01 00:35:12;;;;;;;20.98;15.05;;;1.10;99.90;;;-0.01;100.00;102257.47;4170227;28;20068;-75
2023/03/01 00:37:12;;;;;;;25.15;15.63;;;1.10;99.90;;;-0.06;100.00;102258.53;4174748;28;20025;-75
2023/03/01 00:39:15;;;;;;;25.17;15.77;;;1.00;99.90;;;-0.12;100.00;102256.13;4171487;28;20029;-76
2023/03/01 00:41:18;;;;;;;27.48;15.55;;;1.00;99.90;;;-0.16;100.00;102249.34;4168817;28;20033;-75
2023/03/01 00:43:19;;;;;;;24.02;16.08;;;0.90;99.90;;;-0.25;100.00;102240.13;4168999;28;20073;-75
2023/03/01 00:45:20;;;;;;;21.00;14.63;;;0.90;99.90;;;-0.22;100.00;102258.16;4168697;28;20053;-75
2023/03/01 00:47:21;;;;;;;24.23;15.63;;;0.90;99.90;;;-0.28;100.00;102254.94;4174585;28;20017;-75
2023/03/01 00:49:24;;;;;;;24.88;15.77;;;0.80;99.90;;;-0.33;100.00;102268.03;4168828;28;20040;-75
2023/03/01 00:51:28;;;;;;;24.65;16.13;;;0.80;99.90;;;-0.35;100.00;102262.06;4170145;28;20029;-75
2023/03/01 00:53:29;;;;;;;24.83;16.08;;;0.70;99.90;;;-0.32;100.00;102261.94;4168653;28;20032;-75
2023/03/01 00:55:30;;;;;;;25.52;17.23;;;0.70;99.90;;;-0.41;100.00;102263.97;4183669;28;20029;-75
2023/03/01 00:57:31;;;;;;;25.20;15.40;;;0.70;99.90;;;-0.41;100.00;102274.34;4171527;28;20040;-75
2023/03/01 00:59:32;;;;;;;24.70;16.67;;;0.60;99.90;;;-0.42;100.00;102270.94;4169539;28;20033;-75
2023/03/01 01:01:33;;;;;;;28.65;17.38;;;0.60;99.90;;;-0.45;100.00;102271.03;4169774;28;20095;-75
2023/03/01 01:03:33;;;;;;;26.38;16.60;;;0.60;99.90;;;-0.53;100.00;102270.41;4168362;28;20026;-75
2023/03/01 01:05:35;;;;;;;24.92;15.95;;;0.60;99.90;;;-0.57;100.00;102266.25;4168590;28;20080;-75
2023/03/01 01:07:36;;;;;;;25.88;16.85;;;0.50;99.90;;;-0.61;100.00;102262.03;4174230;28;20528;-75
2023/03/01 01:09:37;;;;;;;27.20;17.05;;;0.50;99.90;;;-0.60;100.00;102277.53;4168684;28;20036;-75
2023/03/01 01:11:38;;;;;;;25.33;17.13;;;0.50;99.90;;;-0.63;100.00;102280.22;4169243;28;20408;-75
2023/03/01 01:13:40;;;;;;;25.70;16.50;;;0.40;99.90;;;-0.66;100.00;102279.47;4168466;28;20033;-75
2023/03/01 01:15:41;;;;;;;26.08;17.23;;;0.40;99.90;;;-0.64;100.00;102278.53;4169619;28;20579;-75
2023/03/01 01:17:42;;;;;;;23.33;16.13;;;0.40;99.90;;;-0.59;100.00;102275.78;4173056;28;20033;-75
2023/03/01 01:19:43;;;;;;;26.73;16.80;;;0.40;99.90;;;-0.63;100.00;102281.97;4168205;28;20029;-75
2023/03/01 01:21:44;;;;;;;27.88;18.35;;;0.40;99.90;;;-0.72;100.00;102277.91;4169571;28;20396;-75
2023/03/01 01:23:47;;;;;;;23.98;16.02;;;0.40;99.90;;;-0.69;100.00;102279.56;4168241;28;20025;-75
2023/03/01 01:25:47;;;;;;;25.90;17.02;;;0.40;99.90;;;-0.70;100.00;102289.09;4169970;28;20026;-75
2023/03/01 01:27:48;;;;;;;31.60;18.75;;;0.40;99.90;;;-0.67;100.00;102293.31;4172031;28;20034;-75
2023/03/01 01:29:49;;;;;;;26.77;17.73;;;0.40;99.90;;;-0.62;100.00;102291.44;4169512;28;20036;-75
2023/03/01 01:31:50;;;;;;;25.48;16.95;;;0.40;99.90;;;-0.64;100.00;102301.84;4168673;28;20021;-75
2023/03/01 01:33:52;;;;;;;27.52;17.38;;;0.50;99.90;;;-0.62;100.00;102294.00;4169437;28;20056;-75
2023/03/01 01:35:53;;;;;;;26.58;17.27;;;0.40;99.90;;;-0.55;100.00;102303.31;4167942;28;20063;-75
2023/03/01 01:37:54;;;;;;;27.02;17.92;;;0.50;99.90;;;-0.56;100.00;102294.69;4180627;28;20478;-75
2023/03/01 01:39:55;;;;;;;27.10;17.45;;;0.60;99.90;;;-0.54;100.00;102294.66;4169193;28;20061;-75
2023/03/01 01:41:56;;;;;;;28.67;17.67;;;0.60;99.90;;;-0.52;100.00;102298.03;4167639;28;20397;-75
2023/03/01 01:44:26;;;;;;;26.40;17.50;;;0.60;99.90;;;-0.51;100.00;102296.28;4169087;28;20047;-75
2023/03/01 01:46:33;;;;;;;30.08;17.23;;;0.60;99.90;;;-0.56;100.00;102301.59;4178736;28;20458;-75
2023/03/01 01:48:46;;;;;;;25.25;16.83;;;0.60;99.90;;;-0.63;100.00;102287.16;4174567;28;20028;-75
2023/03/01 01:50:56;;;;;;;27.58;17.20;;;0.50;99.90;;;-0.63;100.00;102295.75;4167785;28;20053;-75
2023/03/01 01:52:57;;;;;;;24.60;17.33;;;0.50;99.90;;;-0.71;100.00;102291.69;4167855;28;20056;-75
2023/03/01 01:55:31;;;;;;;27.17;18.20;;;0.50;99.90;;;-0.74;100.00;102291.78;4180251;28;20115;-75
2023/03/01 01:57:47;;;;;;;27.20;17.00;;;0.40;99.90;;;-0.78;100.00;102287.63;4163660;28;20045;-75
2023/03/01 01:59:54;;;;;;;25.40;17.48;;;0.30;99.90;;;-0.78;100.00;102283.28;4167817;28;20424;-75
2023/03/01 02:01:58;;;;;;;26.63;17.25;;;0.30;99.90;;;-0.92;100.00;102279.38;4167678;28;20048;-75
2023/03/01 02:03:59;;;;;;;30.35;18.33;;;0.30;99.90;;;-0.99;100.00;102280.47;4167785;28;20036;-75
2023/03/01 02:06:33;;;;;;;23.63;15.98;;;0.20;99.90;;;-1.00;100.00;102294.31;4167671;28;20116;-75
2023/03/01 02:08:41;;;;;;;25.33;17.05;;;0.10;99.90;;;-1.04;100.00;102282.34;4167077;28;20025;-75
2023/03/01 02:10:42;;;;;;;24.98;17.02;;;0.10;99.90;;;-1.14;100.00;102280.03;4183608;28;20021;-75
2023/03/01 02:12:44;;;;;;;27.08;17.58;;;0.10;99.90;;;-1.05;100.00;102288.44;4183945;28;20148;-75
2023/03/01 02:14:44;;;;;;;24.30;17.40;;;0.00;99.90;;;-1.12;100.00;102277.41;4183913;28;20110;-75
2023/03/01 02:16:47;;;;;;;31.50;18.40;;;0.00;99.90;;;-1.20;100.00;102282.81;4177917;28;20150;-75
2023/03/01 02:18:49;;;;;;;29.10;17.70;;;0.00;99.90;;;-1.19;100.00;102273.28;4167627;28;20036;-75
2023/03/01 02:21:05;;;;;;;27.88;18.52;;;-0.10;99.90;;;-1.21;100.00;102270.75;4167740;28;20048;-75
2023/03/01 02:23:08;;;;;;;28.67;18.65;;;-0.10;99.90;;;-1.28;100.00;102276.97;4168585;28;20028;-75
2023/03/01 02:25:18;;;;;;;30.50;17.98;;;-0.20;99.90;;;-1.27;100.00;102270.91;4167353;28;20030;-75
2023/03/01 02:27:24;;;;;;;30.23;18.45;;;-0.20;99.90;;;-1.21;100.00;102259.53;4169534;28;20107;-75
2023/03/01 02:29:26;;;;;;;27.30;17.67;;;-0.20;99.90;;;-1.32;100.00;102251.25;4167432;28;20112;-75
2023/03/01 02:31:43;;;;;;;28.48;19.33;;;-0.20;99.90;;;-1.37;100.00;102248.75;4167642;28;20043;-75
2023/03/01 02:33:45;;;;;;;34.85;18.88;;;-0.20;99.90;;;-1.32;100.00;102246.91;4167788;28;20404;-75
2023/03/01 02:35:46;;;;;;;30.80;19.88;;;-0.20;99.90;;;-1.39;100.00;102254.88;4167410;28;20033;-75
2023/03/01 02:37:48;;;;;;;30.77;19.60;;;-0.30;99.90;;;-1.44;100.00;102252.44;4179535;28;20071;-75
2023/03/01 02:39:58;;;;;;;30.92;19.85;;;-0.30;99.90;;;-1.41;100.00;102252.34;4167217;28;20032;-75
2023/03/01 02:42:00;;;;;;;30.83;19.77;;;-0.30;99.90;;;-1.48;100.00;102250.81;4183253;28;20447;-75
2023/03/01 02:44:01;;;;;;;36.28;20.98;;;-0.40;99.90;;;-1.49;100.00;102246.53;4167332;28;20560;-75
2023/03/01 02:46:14;;;;;;;34.85;19.65;;;-0.40;99.90;;;-1.52;100.00;102241.44;4167469;28;20033;-75
2023/03/01 02:48:16;;;;;;;32.28;19.98;;;-0.40;99.90;;;-1.49;100.00;102246.53;4175850;28;20072;-75
2023/03/01 02:50:23;;;;;;;29.80;19.63;;;-0.40;99.90;;;-1.44;100.00;102241.22;4168461;28;20025;-75
2023/03/01 02:52:33;;;;;;;32.72;20.08;;;-0.40;99.90;;;-1.39;100.00;102239.34;4168471;28;20061;-75
2023/03/01 02:55:20;;;;;;;30.40;19.40;;;-0.30;99.90;;;-1.49;100.00;102237.94;4176105;28;20029;-75
2023/03/01 02:57:23;;;;;;;29.23;19.75;;;-0.40;99.90;;;-1.50;100.00;102226.72;4164812;28;20052;-75
2023/03/01 02:59:30;;;;;;;33.13;19.15;;;-0.40;99.90;;;-1.45;100.00;102219.69;4167295;28;20104;-75
2023/03/01 03:01:37;;;;;;;33.88;20.58;;;-0.40;99.90;;;-1.42;100.00;102226.50;4168776;28;20025;-76
2023/03/01 03:03:38;;;;;;;30.98;18.92;;;-0.30;99.90;;;-1.45;100.00;102217.09;4167119;28;20028;-75
2023/03/01 03:05:38;;;;;;;35.17;20.05;;;-0.30;99.90;;;-1.40;100.00;102224.72;4167372;28;20048;-75
2023/03/01 03:07:43;;;;;;;31.75;19.35;;;-0.30;99.90;;;-1.37;100.00;102222.88;4171890;28;20033;-75
2023/03/01 03:09:44;;;;;;;30.02;19.30;;;-0.30;99.90;;;-1.37;100.00;102229.78;4168298;28;20033;-75
2023/03/01 03:11:45;;;;;;;27.92;18.58;;;-0.30;99.90;;;-1.37;100.00;102225.47;4166767;28;20049;-75
2023/03/01 03:13:47;;;;;;;31.45;19.75;;;-0.30;99.90;;;-1.30;100.00;102229.59;4167314;28;20041;-75
2023/03/01 03:15:48;;;;;;;28.67;18.48;;;-0.30;99.90;;;-1.37;100.00;102219.44;4167198;28;20030;-75
2023/03/01 03:17:51;;;;;;;30.88;19.50;;;-0.20;99.90;;;-1.33;100.00;102218.47;4167930;28;20543;-75
2023/03/01 03:19:51;;;;;;;28.42;18.20;;;-0.20;99.90;;;-1.36;100.00;102214.25;4167046;28;20040;-75
2023/03/01 03:21:52;;;;;;;28.60;18.25;;;-0.20;99.90;;;-1.31;100.00;102227.03;4170601;28;20013;-75
2023/03/01 03:23:53;;;;;;;26.83;18.70;;;-0.20;99.90;;;-1.40;100.00;102212.63;4170999;28;20025;-75
2023/03/01 03:25:54;;;;;;;30.98;18.92;;;-0.20;99.90;;;-1.42;100.00;102213.56;4169879;28;20044;-75
2023/03/01 03:27:59;;;;;;;28.75;18.48;;;-0.30;99.90;;;-1.39;100.00;102213.47;4182020;28;20087;-75
2023/03/01 03:30:00;;;;;;;30.70;19.17;;;-0.30;99.90;;;-1.33;100.00;102213.28;4170055;28;20032;-75
2023/03/01 03:32:00;;;;;;;26.05;17.65;;;-0.30;99.90;;;-1.21;100.00;102212.94;4179582;28;20032;-75
2023/03/01 03:34:01;;;;;;;29.33;18.75;;;-0.20;99.90;;;-1.17;100.00;102219.72;4174025;28;20025;-75
2023/03/01 03:36:03;;;;;;;25.67;17.33;;;-0.10;99.90;;;-1.16;100.00;102217.09;4169828;28;20057;-75
2023/03/01 03:38:09;;;;;;;29.40;17.60;;;-0.10;99.90;;;-1.08;100.00;102213.44;4181057;28;20053;-75
2023/03/01 03:40:15;;;;;;;24.17;17.30;;;0.00;99.90;;;-1.08;100.00;102210.84;4169734;28;20048;-75
2023/03/01 03:42:15;;;;;;;26.75;18.38;;;0.00;99.90;;;-1.11;100.00;102212.59;4171005;28;20022;-75
2023/03/01 03:44:16;;;;;;;26.58;17.80;;;0.00;99.90;;;-1.12;100.00;102208.34;4174730;28;20049;-75
2023/03/01 03:46:17;;;;;;;28.08;17.50;;;0.00;99.90;;;-1.00;100.00;102217.47;4185487;28;20074;-75
2023/03/01 03:48:19;;;;;;;28.63;17.13;;;0.10;99.90;;;-1.02;100.00;102211.50;4170968;28;20045;-75
2023/03/01 03:50:20;;;;;;;26.25;17.67;;;0.10;99.90;;;-1.05;100.00;102208.16;4169705;28;20033;-75
2023/03/01 03:52:21;;;;;;;26.17;17.15;;;0.10;99.90;;;-1.06;100.00;102202.13;4170974;28;20083;-75
2023/03/01 03:54:21;;;;;;;24.13;15.85;;;0.10;99.90;;;-1.04;100.00;102204.66;4175897;28;20032;-75
2023/03/01 03:56:25;;;;;;;23.48;16.35;;;0.10;99.90;;;-1.02;100.00;102205.47;4184564;28;20037;-75
2023/03/01 03:58:26;;;;;;;26.33;17.23;;;0.10;99.90;;;-1.03;100.00;102196.00;4169665;28;20032;-75
2023/03/01 04:00:28;;;;;;;25.77;17.10;;;0.10;99.90;;;-1.08;100.00;102200.47;4169451;28;20065;-75
2023/03/01 04:02:29;;;;;;;26.55;17.50;;;0.10;99.90;;;-1.08;100.00;102196.16;4169613;28;20025;-75
2023/03/01 04:04:29;;;;;;;25.00;17.17;;;0.10;99.90;;;-1.13;100.00;102185.94;4170866;28;20488;-75
2023/03/01 04:06:30;;;;;;;22.45;16.17;;;0.10;99.90;;;-1.13;100.00;102190.25;4171650;28;20029;-75
2023/03/01 04:08:31;;;;;;;23.15;16.00;;;0.10;99.90;;;-1.12;100.00;102190.22;4153918;28;20517;-75
2023/03/01 04:10:38;;;;;;;25.52;17.63;;;0.00;99.90;;;-1.15;100.00;102181.69;4170479;28;20024;-75
2023/03/01 04:12:39;;;;;;;23.90;16.80;;;0.00;99.90;;;-1.10;100.00;102184.97;4169406;28;20113;-75
2023/03/01 04:14:40;;;;;;;24.83;17.52;;;0.00;99.90;;;-1.03;100.00;102185.66;4169351;28;20454;-75
2023/03/01 04:16:41;;;;;;;24.27;16.05;;;0.00;99.90;;;-1.07;100.00;102184.03;4171443;28;20057;-75
2023/03/01 04:18:42;;;;;;;24.08;17.35;;;0.00;99.90;;;-1.07;100.00;102168.50;4170237;28;20077;-75
2023/03/01 04:20:44;;;;;;;25.48;17.02;;;0.10;99.90;;;-0.99;100.00;102176.91;4169457;28;20017;-75
2023/03/01 04:22:46;;;;;;;26.02;16.88;;;0.10;99.90;;;-0.96;100.00;102171.63;4152794;28;20100;-75
2023/03/01 04:24:47;;;;;;;23.00;15.50;;;0.10;99.90;;;-0.90;100.00;102174.03;4170261;28;20029;-75
2023/03/01 04:26:48;;;;;;;22.30;15.90;;;0.20;99.90;;;-0.87;100.00;102179.09;4174349;28;20052;-75
2023/03/01 04:28:50;;;;;;;21.38;15.18;;;0.20;99.90;;;-0.87;100.00;102174.78;4175990;28;20044;-75
2023/03/01 04:30:53;;;;;;;24.70;17.27;;;0.30;99.90;;;-0.84;100.00;102163.47;4169075;28;20057;-75
2023/03/01 04:32:53;;;;;;;20.30;15.32;;;0.30;99.90;;;-0.79;100.00;102170.19;4169026;28;20053;-75
2023/03/01 04:34:54;;;;;;;21.55;15.82;;;0.30;99.90;;;-0.79;100.00;102165.00;4169620;28;20021;-75
2023/03/01 04:36:56;;;;;;;21.85;15.90;;;0.30;99.90;;;-0.82;100.00;102165.09;4174114;28;20037;-75
2023/03/01 04:38:57;;;;;;;21.25;15.48;;;0.40;99.90;;;-0.77;100.00;102172.72;4174065;28;20044;-75
2023/03/01 04:40:57;;;;;;;20.58;14.90;;;0.40;99.90;;;-0.77;100.00;102173.56;4168539;28;20092;-75
2023/03/01 04:42:58;;;;;;;21.42;15.43;;;0.40;99.90;;;-0.70;100.00;102169.03;4168961;28;20017;-75
2023/03/01 04:44:59;;;;;;;20.60;14.95;;;0.40;99.90;;;-0.71;100.00;102175.13;4168942;28;20033;-75
2023/03/01 04:47:00;;;;;;;22.85;15.93;;;0.40;99.90;;;-0.68;100.00;102175.88;4174726;28;20025;-75
2023/03/01 04:49:02;;;;;;;22.50;15.05;;;0.40;99.90;;;-0.75;100.00;102176.13;4171173;28;20040;-75
2023/03/01 04:51:05;;;;;;;22.50;15.57;;;0.40;99.90;;;-0.67;100.00;102181.91;4168802;28;20029;-75
2023/03/01 04:53:06;;;;;;;19.38;14.35;;;0.50;99.90;;;-0.65;100.00;102180.94;4168768;28;20036;-75
2023/03/01 04:55:08;;;;;;;19.45;14.25;;;0.50;99.90;;;-0.61;100.00;102177.38;4181993;28;20021;-75
2023/03/01 04:57:09;;;;;;;21.85;14.68;;;0.50;99.90;;;-0.73;100.00;102182.94;4178041;28;20037;-75
2023/03/01 04:59:12;;;;;;;20.65;14.77;;;0.50;99.90;;;-0.72;100.00;102186.41;4169834;28;20037;-75
2023/03/01 05:01:16;;;;;;;21.00;15.43;;;0.50;99.90;;;-0.75;100.00;102179.56;4168643;28;20481;-75
2023/03/01 05:03:18;;;;;;;22.75;15.52;;;0.50;99.90;;;-0.74;100.00;102183.84;4168571;28;20034;-75
2023/03/01 05:05:35;;;;;;;21.67;14.82;;;0.50;99.90;;;-0.75;100.00;102202.88;4171659;28;20025;-75
2023/03/01 05:07:36;;;;;;;21.13;15.30;;;0.50;99.90;;;-0.76;100.00;102190.81;4175729;28;20033;-75
2023/03/01 05:09:38;;;;;;;20.65;14.15;;;0.40;99.90;;;-0.79;100.00;102190.06;4169836;28;20029;-75
2023/03/01 05:11:39;;;;;;;19.88;14.38;;;0.40;99.90;;;-0.81;100.00;102176.31;4184426;28;20025;-75
2023/03/01 05:13:40;;;;;;;23.20;15.40;;;0.40;99.90;;;-0.78;100.00;102176.22;4156633;28;20076;-75
2023/03/01 05:15:41;;;;;;;20.60;14.38;;;0.40;99.90;;;-0.75;100.00;102176.13;4178049;28;20079;-75
2023/03/01 05:17:42;;;;;;;23.02;15.73;;;0.40;99.90;;;-0.78;100.00;102176.22;4179398;28;20041;-75
2023/03/01 05:19:43;;;;;;;22.13;15.10;;;0.40;99.90;;;-0.79;100.00;102175.38;4169898;28;20018;-75
2023/03/01 05:22:03;;;;;;;21.73;15.55;;;0.40;99.90;;;-0.81;100.00;102171.13;4168537;28;20029;-75
2023/03/01 05:24:05;;;;;;;17.73;14.18;;;0.40;99.90;;;-0.80;100.00;102183.19;4172155;28;20487;-75
2023/03/01 05:26:07;;;;;;;24.30;15.63;;;0.30;99.90;;;-0.83;100.00;102171.16;4198212;28;20032;-75
2023/03/01 05:28:11;;;;;;;22.13;15.45;;;0.30;99.90;;;-0.83;100.00;102183.28;4170146;28;20044;-75
2023/03/01 05:30:13;;;;;;;21.52;15.82;;;0.30;99.90;;;-0.86;100.00;102165.25;4169572;28;20033;-75
2023/03/01 05:32:15;;;;;;;22.20;13.77;;;0.30;99.90;;;-0.86;100.00;102170.41;4165105;28;20036;-75
2023/03/01 05:34:16;;;;;;;22.08;15.73;;;0.30;99.90;;;-0.86;100.00;102170.41;4170043;28;20025;-75
2023/03/01 05:36:18;;;;;;;24.38;16.27;;;0.30;99.90;;;-0.94;100.00;102164.66;4184401;28;20039;-75
2023/03/01 05:38:20;;;;;;;23.98;16.50;;;0.30;99.90;;;-0.88;100.00;102170.47;4175925;28;20030;-75
2023/03/01 05:40:23;;;;;;;22.75;15.55;;;0.30;99.90;;;-0.89;100.00;102163.59;4169001;28;20017;-75
2023/03/01 05:42:24;;;;;;;20.55;14.18;;;0.30;99.90;;;-0.90;100.00;102164.50;4167845;28;20057;-75
2023/03/01 05:44:27;;;;;;;20.98;14.63;;;0.30;99.90;;;-0.88;100.00;102159.28;4169230;28;20037;-75
2023/03/01 05:46:29;;;;;;;21.15;15.05;;;0.30;99.90;;;-0.93;100.00;102156.00;4167498;28;20043;-75
2023/03/01 05:48:29;;;;;;;24.55;16.08;;;0.30;99.90;;;-0.92;100.00;102162.84;4156360;28;20028;-75
2023/03/01 05:50:41;;;;;;;19.05;13.90;;;0.20;99.90;;;-0.89;100.00;102167.94;4167667;28;20029;-75
2023/03/01 05:52:42;;;;;;;22.80;15.75;;;0.20;99.90;;;-0.90;100.00;102158.47;4175196;28;20021;-75
2023/03/01 05:54:43;;;;;;;19.88;14.38;;;0.20;99.90;;;-0.93;100.00;102166.34;4175577;28;20040;-75
2023/03/01 05:56:44;;;;;;;20.25;14.70;;;0.30;99.90;;;-0.94;100.00;102162.91;4170990;28;20021;-75
2023/03/01 05:58:45;;;;;;;21.38;14.70;;;0.20;99.90;;;-0.93;100.00;102167.19;4152428;28;20058;-75
2023/03/01 06:00:48;;;;;;;21.38;13.88;;;0.20;99.90;;;-0.91;100.00;102159.38;4168981;28;20508;-75
2023/03/01 06:02:50;;;;;;;20.98;14.57;;;0.20;99.90;;;-0.90;100.00;102163.66;4167786;28;20080;-75
2023/03/01 06:04:51;;;;;;;21.83;15.57;;;0.20;99.90;;;-0.89;100.00;102163.59;4167762;28;20029;-75
2023/03/01 06:06:52;;;;;;;21.48;15.00;;;0.20;99.90;;;-0.96;100.00;102164.72;4168269;28;20048;-75
2023/03/01 06:08:53;;;;;;;21.23;14.25;;;0.20;99.90;;;-0.98;100.00;102153.53;4168903;28;20033;-75
2023/03/01 06:10:55;;;;;;;20.80;14.55;;;0.20;99.90;;;-0.93;100.00;102150.81;4167449;28;20025;-75
2023/03/01 06:12:56;;;;;;;23.38;15.45;;;0.20;99.90;;;-0.93;100.00;102154.25;4168856;28;20654;-75
2023/03/01 06:14:57;;;;;;;22.38;15.07;;;0.20;99.90;;;-0.90;100.00;102151.56;4167365;28;20029;-75
2023/03/01 06:16:58;;;;;;;20.52;13.80;;;0.20;99.90;;;-0.82;100.00;102153.91;4171507;28;20029;-75
2023/03/01 06:18:59;;;;;;;20.23;14.18;;;0.20;99.90;;;-0.88;100.00;102148.91;4175380;28;20030;-75
2023/03/01 06:20:59;;;;;;;22.65;14.45;;;0.30;99.90;;;-0.90;100.00;102161.94;4167680;28;20464;-75
2023/03/01 06:23:00;;;;;;;19.67;14.13;;;0.30;99.90;;;-0.82;100.00;102153.91;4168679;28;20037;-75
2023/03/01 06:25:01;;;;;;;23.58;16.08;;;0.30;99.90;;;-0.87;100.00;102160.97;4168497;28;20029;-75
2023/03/01 06:27:02;;;;;;;25.35;16.17;;;0.30;99.90;;;-0.91;100.00;102162.81;4171700;28;20056;-75
2023/03/01 06:29:03;;;;;;;21.55;13.60;;;0.30;99.90;;;-0.89;100.00;102163.59;4173098;28;20064;-75
2023/03/01 06:31:04;;;;;;;19.08;13.32;;;0.20;99.90;;;-0.94;100.00;102160.31;4168455;28;20413;-75
2023/03/01 06:33:05;;;;;;;21.58;15.18;;;0.20;99.90;;;-0.95;100.00;102150.00;4167509;28;20025;-75
2023/03/01 06:35:06;;;;;;;21.92;15.10;;;0.20;99.90;;;-0.90;100.00;102156.75;4168649;28;20485;-75
2023/03/01 06:37:08;;;;;;;20.30;14.13;;;0.30;99.90;;;-0.93;100.00;102151.66;4173488;28;20503;-75
2023/03/01 06:39:08;;;;;;;17.63;13.27;;;0.20;99.90;;;-0.97;100.00;102147.47;4168657;28;20025;-75
2023/03/01 06:41:09;;;;;;;20.70;14.38;;;0.20;99.90;;;-0.91;100.00;102157.63;4168400;28;20072;-75
2023/03/01 06:43:11;;;;;;;20.13;14.18;;;0.20;99.90;;;-0.89;100.00;102149.78;4183766;28;20025;-75
2023/03/01 06:45:12;;;;;;;18.38;12.65;;;0.20;99.90;;;-0.83;100.00;102145.28;4168510;28;20083;-75
2023/03/01 06:47:12;;;;;;;18.13;12.73;;;0.30;99.90;;;-0.79;100.00;102151.22;4171218;28;20025;-75
2023/03/01 06:49:15;;;;;;;18.27;13.05;;;0.30;99.90;;;-0.81;100.00;102150.41;4167355;28;20479;-75
2023/03/01 06:51:16;;;;;;;17.67;12.57;;;0.30;99.90;;;-0.80;100.00;102152.94;4183711;28;20140;-75
2023/03/01 06:53:17;;;;;;;19.58;13.32;;;0.30;99.90;;;-0.80;100.00;102152.94;4168432;28;20029;-76
2023/03/01 06:55:18;;;;;;;17.08;12.75;;;0.30;99.90;;;-0.85;100.00;102154.84;4181920;28;20404;-75
2023/03/01 06:57:19;;;;;;;18.80;13.82;;;0.30;99.90;;;-0.93;100.00;102149.06;4172155;28;20068;-75
2023/03/01 06:59:20;;;;;;;20.13;14.23;;;0.30;99.90;;;-0.81;100.00;102153.00;4170555;28;20485;-75
2023/03/01 07:01:21;;;;;;;19.50;13.07;;;0.30;99.90;;;-0.86;100.00;102157.47;4171624;28;20026;-75
2023/03/01 07:03:22;;;;;;;19.10;13.27;;;0.20;99.90;;;-0.90;100.00;102156.75;4171902;28;20056;-75
2023/03/01 07:05:23;;;;;;;19.17;12.65;;;0.20;99.90;;;-0.92;100.00;102155.06;4170708;28;20400;-75
2023/03/01 07:07:24;;;;;;;22.58;14.25;;;0.20;99.90;;;-0.87;100.00;102161.81;4176263;28;20033;-75
2023/03/01 07:09:25;;;;;;;19.83;13.02;;;0.20;99.90;;;-0.85;100.00;102154.00;4171549;28;20041;-75
2023/03/01 07:11:26;;;;;;;21.42;13.73;;;0.30;99.90;;;-0.81;100.00;102163.38;4170063;28;20164;-75
2023/03/01 07:13:26;;;;;;;19.98;13.55;;;0.30;99.90;;;-0.77;100.00;102157.19;4171515;28;20029;-75
2023/03/01 07:15:28;;;;;;;19.83;13.00;;;0.30;99.90;;;-0.73;100.00;102166.56;4170339;28;20025;-75
2023/03/01 07:17:29;;;;;;;20.15;13.45;;;0.40;99.90;;;-0.74;100.00;102157.06;4173673;28;20033;-75
2023/03/01 07:19:30;;;;;;;14.90;11.93;;;0.40;99.90;;;-0.58;100.00;102171.25;4170138;28;20410;-75
2023/03/01 07:21:31;;;;;;;17.70;12.77;;;0.50;99.90;;;-0.58;100.00;102163.47;4171201;28;20026;-75
2023/03/01 07:23:32;;;;;;;16.88;12.20;;;0.50;99.90;;;-0.57;100.00;102149.63;4171169;28;20108;-75
2023/03/01 07:25:33;;;;;;;19.25;11.80;;;0.60;99.90;;;-0.41;100.00;102161.16;4169686;28;20539;-75
2023/03/01 07:27:34;;;;;;;16.15;11.38;;;0.70;99.90;;;-0.35;100.00;102165.28;4172145;28;20517;-75
2023/03/01 07:29:36;;;;;;;17.15;11.90;;;0.70;99.90;;;-0.30;99.63;102163.41;4169927;28;20057;-75
2023/03/01 07:31:37;;;;;;;16.27;11.23;;;0.80;99.90;;;-0.27;99.53;102163.28;4173823;28;20373;-75
2023/03/01 07:33:38;;;;;;;18.77;12.23;;;0.80;99.90;;;-0.25;99.17;102157.16;4189055;28;20032;-75
2023/03/01 07:35:38;;;;;;;16.42;11.45;;;0.80;99.90;;;-0.24;98.84;102152.81;4172194;28;20047;-75
2023/03/01 07:37:39;;;;;;;16.77;11.23;;;0.90;99.90;;;-0.20;98.13;102167.34;4181790;28;20028;-75
2023/03/01 07:39:41;;;;;;;17.92;12.02;;;0.90;99.90;;;-0.18;97.61;102178.53;4171039;28;20052;-75
2023/03/01 07:41:41;;;;;;;15.48;11.15;;;1.00;99.90;;;-0.15;97.48;102166.28;4179024;28;20029;-75
2023/03/01 07:43:42;;;;;;;16.10;11.43;;;1.00;99.90;;;-0.17;97.50;102162.06;4187582;28;20040;-75
2023/03/01 07:45:43;;;;;;;20.25;12.27;;;1.00;99.90;;;-0.08;97.23;102172.97;4187399;28;20017;-75
2023/03/01 07:47:44;;;;;;;14.95;11.43;;;1.00;99.90;;;-0.04;97.67;102160.75;4172773;28;20037;-75
2023/03/01 07:49:45;;;;;;;18.00;11.60;;;1.00;99.90;;;-0.11;97.43;102164.44;4170011;28;20033;-75
2023/03/01 07:51:46;;;;;;;18.40;12.75;;;1.10;99.90;;;-0.08;97.95;102174.72;4169730;28;20040;-75
2023/03/01 07:53:48;;;;;;;17.77;12.82;;;1.10;99.90;;;-0.13;98.49;102167.09;4172006;28;20036;-75
2023/03/01 07:55:48;;;;;;;18.13;11.50;;;1.00;99.90;;;-0.23;97.94;102173.50;4185970;28;20021;-75
2023/03/01 07:57:49;;;;;;;15.55;10.63;;;1.00;99.90;;;-0.23;97.79;102170.06;4169340;28;20535;-73
2023/03/01 07:59:50;;;;;;;16.30;12.15;;;1.00;99.90;;;-0.32;97.68;102165.19;4173650;28;20025;-74
2023/03/01 08:01:51;;;;;;;14.57;11.73;;;1.00;99.90;;;-0.24;97.93;102176.97;4170168;28;20085;-74
2023/03/01 08:03:52;;;;;;;15.05;10.95;;;0.90;99.90;;;-0.30;98.03;102178.94;4170207;28;20080;-74
2023/03/01 08:05:53;;;;;;;17.40;11.63;;;0.90;99.90;;;-0.31;98.14;102172.91;4169522;28;20024;-75
2023/03/01 08:07:54;;;;;;;16.58;11.20;;;0.80;99.90;;;-0.29;97.44;102171.09;4196638;28;20481;-75
2023/03/01 08:09:54;;;;;;;16.75;11.38;;;0.90;99.90;;;-0.35;97.66;102173.91;4168235;28;20096;-74
2023/03/01 08:11:59;;;;;;;16.98;11.65;;;0.90;99.90;;;-0.28;97.22;102172.81;4170323;28;20048;-74
2023/03/01 08:14:00;;;;;;;;;;;0.90;99.90;;;-0.30;96.66;102169.41;4170603;28;20033;-74
2023/03/01 08:16:12;;;;;;;16.40;10.77;;;0.90;99.90;;;-0.27;96.71;102169.31;4185362;28;19908;-74
2023/03/01 08:18:13;;;;;;;15.60;11.02;;;0.90;99.90;;;-0.23;96.81;102176.09;4170001;28;20065;-74
2023/03/01 08:20:14;;;;;;;17.33;11.40;;;0.90;99.90;;;-0.20;96.28;102170.78;4170405;28;20528;-74